createdAt,value
2018-09-22T00:01:28.253Z,99247.52
2018-09-22T00:03:57.547Z,99248.95
2018-09-22T00:06:27.047Z,99251.39
2018-09-22T00:08:56.888Z,99250.89
2018-09-22T00:11:25.749Z,99255.62
2018-09-22T00:13:54.673Z,99259.79
2018-09-22T00:16:24.355Z,99257.34
2018-09-22T00:18:53.224Z,99264.88
2018-09-22T00:21:23.894Z,99263.13
2018-09-22T00:23:52.671Z,99267.39
2018-09-22T00:26:21.896Z,99266.06
2018-09-22T00:28:51.536Z,99271.00
2018-09-22T00:31:19.996Z,99266.08
2018-09-22T00:33:48.416Z,99275.30
2018-09-22T00:36:16.889Z,99271.06
2018-09-22T00:38:45.940Z,99279.49
2018-09-22T00:41:14.883Z,99285.91
2018-09-22T00:43:43.640Z,99282.23
2018-09-22T00:46:13.309Z,99287.17
2018-09-22T00:48:42.923Z,99289.03
2018-09-22T00:51:11.725Z,99286.80
2018-09-22T00:53:40.449Z,99281.67
2018-09-22T00:56:09.288Z,99288.77
2018-09-22T00:58:38.059Z,99290.56
2018-09-22T01:01:07.329Z,99297.19
2018-09-22T01:03:36.316Z,99290.36
2018-09-22T01:06:06.417Z,99300.52
2018-09-22T01:08:36.243Z,99300.91
2018-09-22T01:11:05.691Z,99304.02
2018-09-22T01:13:35.075Z,99303.09
2018-09-22T01:16:04.420Z,99304.89
2018-09-22T01:18:33.454Z,99305.64
2018-09-22T01:21:02.767Z,99307.34
2018-09-22T01:23:31.552Z,99309.12
2018-09-22T01:26:00.349Z,99312.55
2018-09-22T01:28:30.212Z,99322.63
2018-09-22T01:30:58.996Z,99316.39
2018-09-22T01:33:27.877Z,99325.20
2018-09-22T01:35:57.355Z,99330.52
2018-09-22T01:38:27.120Z,99327.39
2018-09-22T01:40:57.149Z,99326.55
2018-09-22T01:43:26.008Z,99326.05
2018-09-22T01:45:56.015Z,99335.80
2018-09-22T01:48:24.764Z,99340.27
2018-09-22T01:50:54.540Z,99350.00
2018-09-22T01:53:24.003Z,99346.22
2018-09-22T01:55:52.857Z,99345.55
2018-09-22T01:58:21.593Z,99343.19
2018-09-22T02:00:51.548Z,99344.44
2018-09-22T02:03:21.000Z,99350.76
2018-09-22T02:05:50.913Z,99352.75
2018-09-22T02:08:20.318Z,99353.70
2018-09-22T02:10:49.925Z,99349.64
2018-09-22T02:13:18.764Z,99352.16
2018-09-22T02:15:48.337Z,99361.06
2018-09-22T02:18:16.801Z,99365.62
2018-09-22T02:20:46.227Z,99371.96
2018-09-22T02:23:15.340Z,99383.56
2018-09-22T02:25:44.495Z,99373.54
2018-09-22T02:28:13.627Z,99371.94
2018-09-22T02:30:42.916Z,99379.29
2018-09-22T02:33:12.319Z,99377.28
2018-09-22T02:35:41.079Z,99377.79
2018-09-22T02:38:09.956Z,99374.83
2018-09-22T02:40:39.336Z,99384.48
2018-09-22T02:43:08.309Z,99392.80
2018-09-22T02:45:37.608Z,99382.31
2018-09-22T02:48:06.884Z,99392.72
2018-09-22T02:50:35.685Z,99391.53
2018-09-22T02:53:04.532Z,99399.04
2018-09-22T02:55:34.681Z,99411.56
2018-09-22T02:58:03.792Z,99403.28
2018-09-22T03:00:32.889Z,99413.11
2018-09-22T03:03:02.164Z,99425.91
2018-09-22T03:05:30.621Z,99419.48
2018-09-22T03:07:59.683Z,99429.19
2018-09-22T03:10:28.657Z,99413.80
2018-09-22T03:12:58.070Z,99427.30
2018-09-22T03:15:26.818Z,99428.14
2018-09-22T03:17:55.930Z,99432.69
2018-09-22T03:20:24.624Z,99431.30
2018-09-22T03:22:54.431Z,99422.56
2018-09-22T03:25:23.937Z,99425.97
2018-09-22T03:27:52.762Z,99427.39
2018-09-22T03:30:21.783Z,99427.58
2018-09-22T03:32:51.260Z,99432.39
2018-09-22T03:35:20.829Z,99428.14
2018-09-22T03:37:49.829Z,99432.84
2018-09-22T03:40:19.424Z,99441.16
2018-09-22T03:42:49.234Z,99441.16
2018-09-22T03:45:19.687Z,99426.31
2018-09-22T03:47:49.819Z,99435.11
2018-09-22T03:50:19.908Z,99434.23
2018-09-22T03:52:49.693Z,99427.16
2018-09-22T03:55:18.130Z,99422.37
2018-09-22T03:57:47.565Z,99429.09
2018-09-22T04:00:16.716Z,99441.75
2018-09-22T04:02:46.401Z,99449.67
2018-09-22T04:05:15.335Z,99424.44
2018-09-22T04:07:43.767Z,99428.97
2018-09-22T04:10:14.854Z,99443.61
2018-09-22T04:12:43.725Z,99433.98
2018-09-22T04:15:13.220Z,99435.88
2018-09-22T04:17:43.002Z,99442.48
2018-09-22T04:20:11.924Z,99447.31
2018-09-22T04:22:40.577Z,99450.02
2018-09-22T04:25:09.888Z,99453.34
2018-09-22T04:27:39.431Z,99450.95
2018-09-22T04:30:08.268Z,99446.53
2018-09-22T04:32:37.345Z,99444.37
2018-09-22T04:35:06.521Z,99443.05
2018-09-22T04:37:35.536Z,99445.33
2018-09-22T04:40:05.141Z,99436.34
2018-09-22T04:42:34.577Z,99444.02
2018-09-22T04:45:03.638Z,99448.79
2018-09-22T04:47:33.133Z,99452.51
2018-09-22T04:50:02.577Z,99451.42
2018-09-22T04:52:31.666Z,99455.43
2018-09-22T04:55:00.493Z,99464.20
2018-09-22T04:57:29.945Z,99469.63
2018-09-22T04:59:59.423Z,99474.19
2018-09-22T05:02:27.868Z,99469.67
2018-09-22T05:04:56.882Z,99481.10
2018-09-22T05:07:25.855Z,99487.48
2018-09-22T05:09:54.798Z,99486.16
2018-09-22T05:12:24.501Z,99495.23
2018-09-22T05:14:53.797Z,99492.20
2018-09-22T05:17:22.659Z,99491.47
2018-09-22T05:19:51.526Z,99497.09
2018-09-22T05:22:20.628Z,99500.41
2018-09-22T05:24:50.514Z,99508.01
2018-09-22T05:27:20.366Z,99509.22
2018-09-22T05:29:49.411Z,99514.51
2018-09-22T05:32:18.653Z,99516.98
2018-09-22T05:34:47.809Z,99514.19
2018-09-22T05:37:17.329Z,99517.98
2018-09-22T05:39:46.465Z,99528.94
2018-09-22T05:42:15.576Z,99531.97
2018-09-22T05:44:44.576Z,99523.01
2018-09-22T05:47:14.625Z,99527.44
2018-09-22T05:49:43.424Z,99521.83
2018-09-22T05:52:13.262Z,99525.83
2018-09-22T05:54:43.456Z,99529.47
2018-09-22T05:57:13.344Z,99535.11
2018-09-22T05:59:43.370Z,99541.73
2018-09-22T06:02:13.572Z,99538.58
2018-09-22T06:04:42.392Z,99544.30
2018-09-22T06:07:11.848Z,99540.19
2018-09-22T06:09:40.949Z,99550.27
2018-09-22T06:12:09.926Z,99551.45
2018-09-22T06:14:39.002Z,99560.98
2018-09-22T06:17:08.040Z,99563.73
2018-09-22T06:19:37.572Z,99568.42
2018-09-22T06:22:06.511Z,99577.97
2018-09-22T06:24:35.670Z,99579.58
2018-09-22T06:27:04.843Z,99575.66
2018-09-22T06:29:33.776Z,99558.06
2018-09-22T06:32:03.669Z,99567.72
2018-09-22T06:34:32.294Z,99566.48
2018-09-22T06:37:02.764Z,99567.04
2018-09-22T06:39:31.863Z,99574.80
2018-09-22T06:42:01.409Z,99581.65
2018-09-22T06:44:30.642Z,99574.84
2018-09-22T06:46:59.349Z,99572.39
2018-09-22T06:49:28.438Z,99574.37
2018-09-22T06:51:57.501Z,99566.80
2018-09-22T06:54:26.373Z,99572.30
2018-09-22T06:56:55.265Z,99561.11
2018-09-22T06:59:24.309Z,99571.20
2018-09-22T07:01:53.544Z,99566.64
2018-09-22T07:04:23.256Z,99563.63
2018-09-22T07:06:52.714Z,99558.45
2018-09-22T07:09:21.968Z,99559.61
2018-09-22T07:11:51.533Z,99558.11
2018-09-22T07:14:20.568Z,99538.23
2018-09-22T07:16:49.673Z,99540.52
2018-09-22T07:19:19.002Z,99546.77
2018-09-22T07:21:53.084Z,99542.50
2018-09-22T07:24:22.449Z,99539.10
2018-09-22T07:26:52.436Z,99553.40
2018-09-22T07:29:21.840Z,99551.11
2018-09-22T07:31:51.574Z,99557.47
2018-09-22T07:34:20.113Z,99549.62
2018-09-22T07:36:48.621Z,99560.02
2018-09-22T07:39:18.222Z,99554.45
2018-09-22T07:41:47.042Z,99559.22
2018-09-22T07:44:16.320Z,99560.13
2018-09-22T07:46:44.763Z,99558.80
2018-09-22T07:49:14.104Z,99567.72
2018-09-22T07:51:44.040Z,99573.95
2018-09-22T07:54:12.977Z,99571.41
2018-09-22T07:56:42.348Z,99575.44
2018-09-22T07:59:11.129Z,99570.43
2018-09-22T08:01:40.137Z,99579.90
2018-09-22T08:04:08.949Z,99583.88
2018-09-22T08:06:37.664Z,99584.98
2018-09-22T08:09:08.009Z,99586.93
2018-09-22T08:11:37.196Z,99596.03
2018-09-22T08:14:07.147Z,99604.11
2018-09-22T08:16:36.628Z,99606.16
2018-09-22T08:19:05.066Z,99613.94
2018-09-22T08:21:34.109Z,99607.57
2018-09-22T08:24:02.851Z,99618.34
2018-09-22T08:26:32.116Z,99615.43
2018-09-22T08:29:00.683Z,99612.09
2018-09-22T08:31:29.808Z,99606.44
2018-09-22T08:33:58.584Z,99600.52
2018-09-22T08:36:28.530Z,99594.80
2018-09-22T08:38:57.107Z,99583.27
2018-09-22T08:41:26.944Z,99579.37
2018-09-22T08:43:55.476Z,99587.20
2018-09-22T08:46:24.528Z,99577.88
2018-09-22T08:48:53.509Z,99586.45
2018-09-22T08:51:22.423Z,99585.34
2018-09-22T08:53:50.909Z,99596.87
2018-09-22T08:56:19.313Z,99590.23
2018-09-22T08:58:47.776Z,99588.10
2018-09-22T09:01:17.548Z,99588.08
2018-09-22T09:03:46.726Z,99593.59
2018-09-22T09:06:15.401Z,99600.31
2018-09-22T09:08:43.867Z,99612.92
2018-09-22T09:11:12.626Z,99605.39
2018-09-22T09:13:42.250Z,99603.28
2018-09-22T09:16:11.772Z,99606.06
2018-09-22T09:18:41.041Z,99598.81
2018-09-22T09:21:09.567Z,99591.68
2018-09-22T09:23:38.553Z,99597.73
2018-09-22T09:26:08.222Z,99577.39
2018-09-22T09:28:37.087Z,99577.88
2018-09-22T09:31:07.024Z,99558.41
2018-09-22T09:33:36.757Z,99564.53
2018-09-22T09:36:07.397Z,99552.42
2018-09-22T09:38:36.660Z,99557.45
2018-09-22T09:41:05.400Z,99561.31
2018-09-22T09:43:34.214Z,99557.38
2018-09-22T09:46:02.898Z,99549.67
2018-09-22T09:48:32.104Z,99545.72
2018-09-22T09:51:00.788Z,99545.21
2018-09-22T09:53:29.933Z,99544.77
2018-09-22T09:55:59.321Z,99540.72
2018-09-22T09:58:28.128Z,99532.30
2018-09-22T10:00:57.591Z,99529.02
2018-09-22T10:03:26.601Z,99539.86
2018-09-22T10:05:56.396Z,99544.55
2018-09-22T10:08:25.437Z,99539.94
2018-09-22T10:10:54.153Z,99549.50
2018-09-22T10:13:22.895Z,99548.19
2018-09-22T10:15:51.345Z,99536.42
2018-09-22T10:18:20.585Z,99534.13
2018-09-22T10:20:49.278Z,99529.14
2018-09-22T10:23:18.480Z,99546.41
2018-09-22T10:25:47.409Z,99505.96
2018-09-22T10:28:17.792Z,99502.70
2018-09-22T10:30:46.661Z,99510.09
2018-09-22T10:33:15.713Z,99507.67
2018-09-22T10:35:45.454Z,99503.45
2018-09-22T10:38:13.884Z,99494.98
2018-09-22T10:40:44.181Z,99505.36
2018-09-22T10:43:13.092Z,99498.69
2018-09-22T10:45:41.576Z,99495.41
2018-09-22T10:48:10.105Z,99474.22
2018-09-22T10:50:39.516Z,99470.53
2018-09-22T10:53:08.017Z,99474.53
2018-09-22T10:55:37.458Z,99484.46
2018-09-22T10:58:06.169Z,99494.36
2018-09-22T11:00:35.925Z,99488.52
2018-09-22T11:03:04.702Z,99495.52
2018-09-22T11:05:33.932Z,99501.20
2018-09-22T11:08:03.118Z,99496.98
2018-09-22T11:10:31.817Z,99496.70
2018-09-22T11:13:00.784Z,99484.06
2018-09-22T11:15:30.696Z,99477.31
2018-09-22T11:17:59.757Z,99476.70
2018-09-22T11:20:29.049Z,99476.79
2018-09-22T11:22:58.547Z,99487.55
2018-09-22T11:25:28.217Z,99485.00
2018-09-22T11:27:57.014Z,99496.14
2018-09-22T11:30:26.576Z,99483.89
2018-09-22T11:32:56.180Z,99479.37
2018-09-22T11:35:24.892Z,99473.70
2018-09-22T11:37:53.312Z,99476.47
2018-09-22T11:40:22.465Z,99472.27
2018-09-22T11:42:51.166Z,99479.42
2018-09-22T11:45:21.167Z,99477.28
2018-09-22T11:47:50.307Z,99471.40
2018-09-22T11:50:19.072Z,99464.19
2018-09-22T11:52:47.904Z,99464.47
2018-09-22T11:55:17.172Z,99461.88
2018-09-22T11:57:47.068Z,99473.30
2018-09-22T12:00:17.217Z,99468.91
2018-09-22T12:02:46.398Z,99464.00
2018-09-22T12:05:14.841Z,99464.11
2018-09-22T12:07:43.660Z,99458.77
2018-09-22T12:10:13.129Z,99444.09
2018-09-22T12:12:42.312Z,99439.11
2018-09-22T12:15:11.237Z,99430.73
2018-09-22T12:17:41.252Z,99426.25
2018-09-22T12:20:10.458Z,99438.93
2018-09-22T12:22:39.766Z,99424.72
2018-09-22T12:25:09.269Z,99429.71
2018-09-22T12:27:38.055Z,99423.97
2018-09-22T12:30:07.242Z,99429.70
2018-09-22T12:32:36.590Z,99424.38
2018-09-22T12:35:05.995Z,99433.75
2018-09-22T12:37:35.452Z,99427.00
2018-09-22T12:40:04.385Z,99433.27
2018-09-22T12:42:32.802Z,99423.45
2018-09-22T12:45:01.710Z,99418.12
2018-09-22T12:47:31.215Z,99420.53
2018-09-22T12:50:00.551Z,99422.00
2018-09-22T12:52:29.339Z,99415.03
2018-09-22T12:54:58.344Z,99411.02
2018-09-22T12:57:27.698Z,99409.61
2018-09-22T12:59:56.485Z,99405.86
2018-09-22T13:02:25.488Z,99407.13
2018-09-22T13:04:54.513Z,99415.41
2018-09-22T13:07:23.595Z,99413.41
2018-09-22T13:09:52.042Z,99422.92
2018-09-22T13:12:21.761Z,99428.03
2018-09-22T13:14:50.887Z,99422.80
2018-09-22T13:17:19.938Z,99410.09
2018-09-22T13:19:49.444Z,99407.77
2018-09-22T13:22:18.888Z,99404.41
2018-09-22T13:24:47.507Z,99400.11
2018-09-22T13:27:16.642Z,99382.13
2018-09-22T13:29:45.747Z,99381.58
2018-09-22T13:32:14.541Z,99392.99
2018-09-22T13:34:44.003Z,99377.20
2018-09-22T13:37:13.452Z,99381.80
2018-09-22T13:39:42.693Z,99382.86
2018-09-22T13:42:11.151Z,99385.43
2018-09-22T13:44:40.537Z,99370.95
2018-09-22T13:47:09.821Z,99385.40
2018-09-22T13:49:38.977Z,99390.81
2018-09-22T13:52:07.867Z,99381.73
2018-09-22T13:54:36.546Z,99370.95
2018-09-22T13:57:05.530Z,99376.37
2018-09-22T13:59:35.220Z,99378.00
2018-09-22T14:02:04.736Z,99363.29
2018-09-22T14:04:33.890Z,99363.61
2018-09-22T14:07:03.404Z,99366.61
2018-09-22T14:09:32.380Z,99364.12
2018-09-22T14:12:01.730Z,99353.27
2018-09-22T14:14:30.868Z,99352.46
2018-09-22T14:16:59.834Z,99352.32
2018-09-22T14:19:29.444Z,99343.09
2018-09-22T14:21:58.164Z,99341.92
2018-09-22T14:24:26.944Z,99327.95
2018-09-22T14:26:55.823Z,99329.99
2018-09-22T14:29:24.945Z,99321.26
2018-09-22T14:31:54.865Z,99324.76
2018-09-22T14:34:24.295Z,99324.72
2018-09-22T14:36:53.628Z,99314.00
2018-09-22T14:39:22.177Z,99324.51
2018-09-22T14:41:51.207Z,99344.17
2018-09-22T14:44:20.137Z,99338.66
2018-09-22T14:46:49.986Z,99342.54
2018-09-22T14:49:19.119Z,99341.22
2018-09-22T14:51:48.392Z,99332.16
2018-09-22T14:54:18.276Z,99331.97
2018-09-22T14:56:47.358Z,99323.13
2018-09-22T14:59:16.525Z,99336.34
2018-09-22T15:01:45.985Z,99331.53
2018-09-22T15:04:15.873Z,99316.53
2018-09-22T15:06:44.554Z,99305.20
2018-09-22T15:09:13.841Z,99290.97
2018-09-22T15:11:42.261Z,99272.77
2018-09-22T15:14:11.762Z,99261.11
2018-09-22T15:16:40.556Z,99250.34
2018-09-22T15:19:09.779Z,99250.77
2018-09-22T15:21:38.322Z,99265.09
2018-09-22T15:24:07.893Z,99260.59
2018-09-22T15:26:37.401Z,99263.00
2018-09-22T15:29:06.300Z,99274.66
2018-09-22T15:31:34.810Z,99274.80
2018-09-22T15:34:03.641Z,99269.53
2018-09-22T15:36:32.950Z,99272.81
2018-09-22T15:39:02.383Z,99263.97
2018-09-22T15:41:32.327Z,99266.19
2018-09-22T15:44:01.417Z,99272.70
2018-09-22T15:46:30.721Z,99287.38
2018-09-22T15:48:59.412Z,99265.06
2018-09-22T15:51:28.053Z,99256.47
2018-09-22T15:53:57.571Z,99250.59
2018-09-22T15:56:26.252Z,99249.42
2018-09-22T15:58:55.208Z,99255.20
2018-09-22T16:01:24.683Z,99244.84
2018-09-22T16:03:53.605Z,99256.06
2018-09-22T16:06:22.970Z,99249.11
2018-09-22T16:08:51.790Z,99247.67
2018-09-22T16:11:20.591Z,99253.52
2018-09-22T16:13:49.713Z,99242.42
2018-09-22T16:16:18.144Z,99241.09
2018-09-22T16:18:47.620Z,99232.19
2018-09-22T16:21:16.939Z,99236.21
2018-09-22T16:23:46.237Z,99238.30
2018-09-22T16:26:14.994Z,99241.16
2018-09-22T16:28:43.682Z,99244.59
2018-09-22T16:31:12.338Z,99242.41
2018-09-22T16:33:42.151Z,99247.34
2018-09-22T16:36:10.883Z,99242.24
2018-09-22T16:38:41.361Z,99252.30
2018-09-22T16:41:10.194Z,99250.97
2018-09-22T16:43:39.557Z,99257.22
2018-09-22T16:46:08.659Z,99263.13
2018-09-22T16:48:37.627Z,99272.08
2018-09-22T16:51:07.201Z,99271.42
2018-09-22T16:53:36.498Z,99286.34
2018-09-22T16:56:06.050Z,99303.25
2018-09-22T16:58:35.141Z,99308.98
2018-09-22T17:01:04.836Z,99319.52
2018-09-22T17:03:34.069Z,99325.94
2018-09-22T17:06:03.988Z,99333.63
2018-09-22T17:08:32.744Z,99336.61
2018-09-22T17:11:01.836Z,99340.09
2018-09-22T17:13:31.322Z,99330.73
2018-09-22T17:16:00.212Z,99334.61
2018-09-22T17:18:29.649Z,99332.16
2018-09-22T17:20:58.667Z,99337.20
2018-09-22T17:23:27.444Z,99331.63
2018-09-22T17:25:56.304Z,99332.36
2018-09-22T17:28:25.112Z,99336.11
2018-09-22T17:30:54.105Z,99338.56
2018-09-22T17:33:24.682Z,99348.36
2018-09-22T17:35:53.765Z,99347.39
2018-09-22T17:38:23.220Z,99349.89
2018-09-22T17:40:51.694Z,99346.69
2018-09-22T17:43:21.931Z,99350.91
2018-09-22T17:45:51.922Z,99350.91
2018-09-22T17:48:20.428Z,99356.53
2018-09-22T17:50:49.693Z,99353.39
2018-09-22T17:53:18.469Z,99350.66
2018-09-22T17:55:47.937Z,99354.77
2018-09-22T17:58:17.328Z,99342.70
2018-09-22T18:00:46.545Z,99345.73
2018-09-22T18:03:15.480Z,99342.34
2018-09-22T18:05:44.712Z,99341.92
2018-09-22T18:08:13.432Z,99346.70
2018-09-22T18:10:42.145Z,99344.33
2018-09-22T18:13:11.096Z,99329.16
2018-09-22T18:15:40.593Z,99332.36
2018-09-22T18:18:09.360Z,99346.36
2018-09-22T18:20:38.352Z,99344.38
2018-09-22T18:23:07.214Z,99342.73
2018-09-22T18:25:36.952Z,99337.73
2018-09-22T18:28:06.122Z,99337.91
2018-09-22T18:30:35.589Z,99337.59
2018-09-22T18:33:05.662Z,99339.03
2018-09-22T18:35:34.427Z,99340.39
2018-09-22T18:38:04.000Z,99345.31
2018-09-22T18:40:32.455Z,99352.41
2018-09-22T18:43:01.573Z,99359.66
2018-09-22T18:45:30.413Z,99368.08
2018-09-22T18:47:59.177Z,99372.47
2018-09-22T18:50:28.236Z,99360.73
2018-09-22T18:52:56.678Z,99352.05
2018-09-22T18:55:25.100Z,99356.69
2018-09-22T18:57:53.805Z,99366.11
2018-09-22T19:00:22.208Z,99365.61
2018-09-22T19:02:51.694Z,99363.24
2018-09-22T19:05:20.556Z,99364.12
2018-09-22T19:07:49.244Z,99369.73
2018-09-22T19:10:18.132Z,99370.66
2018-09-22T19:12:46.705Z,99385.38
2018-09-22T19:15:47.092Z,99378.07
2018-09-22T19:18:21.264Z,99382.75
2018-09-22T19:20:54.123Z,99386.11
2018-09-22T19:23:45.032Z,99385.78
2018-09-22T19:26:16.241Z,99384.45
2018-09-22T19:28:48.698Z,99383.81
2018-09-22T19:31:28.328Z,99383.37
2018-09-22T19:34:02.752Z,99378.80
2018-09-22T19:36:35.211Z,99375.89
2018-09-22T19:39:07.518Z,99371.47
2018-09-22T19:41:41.721Z,99367.70
2018-09-22T19:44:20.661Z,99363.60
2018-09-22T19:46:59.989Z,99362.91
2018-09-22T19:49:34.035Z,99377.30
2018-09-22T19:52:07.953Z,99368.48
2018-09-22T19:54:36.388Z,99369.77
2018-09-22T19:57:05.298Z,99369.98
2018-09-22T19:59:34.022Z,99371.53
2018-09-22T20:02:03.059Z,99360.83
2018-09-22T20:04:32.305Z,99345.14
2018-09-22T20:07:01.449Z,99347.73
2018-09-22T20:09:30.576Z,99351.48
2018-09-22T20:11:59.822Z,99353.78
2018-09-22T20:14:29.023Z,99357.22
2018-09-22T20:16:57.454Z,99354.89
2018-09-22T20:19:26.462Z,99341.49
2018-09-22T20:21:54.875Z,99337.87
2018-09-22T20:24:23.928Z,99349.25
2018-09-22T20:26:53.180Z,99346.03
2018-09-22T20:29:22.420Z,99340.91
2018-09-22T20:31:51.324Z,99344.78
2018-09-22T20:34:20.400Z,99349.14
2018-09-22T20:36:49.076Z,99328.25
2018-09-22T20:39:17.588Z,99335.48
2018-09-22T20:41:46.329Z,99330.61
2018-09-22T20:44:16.101Z,99328.06
2018-09-22T20:46:45.104Z,99325.38
2018-09-22T20:49:13.554Z,99314.20
2018-09-22T20:51:42.407Z,99310.62
2018-09-22T20:54:11.800Z,99311.36
2018-09-22T20:56:40.819Z,99323.91
2018-09-22T20:59:09.988Z,99326.78
2018-09-22T21:01:38.642Z,99321.65
2018-09-22T21:04:07.636Z,99327.70
2018-09-22T21:06:36.420Z,99326.23
2018-09-22T21:09:06.623Z,99322.17
2018-09-22T21:11:35.583Z,99332.03
2018-09-22T21:14:04.125Z,99324.47
2018-09-22T21:16:33.626Z,99326.25
2018-09-22T21:19:02.718Z,99318.52
2018-09-22T21:21:31.767Z,99313.61
2018-09-22T21:24:00.201Z,99321.81
2018-09-22T21:26:28.624Z,99311.72
2018-09-22T21:28:57.720Z,99314.31
2018-09-22T21:31:26.260Z,99316.63
2018-09-22T21:33:55.404Z,99313.69
2018-09-22T21:36:23.828Z,99319.70
2018-09-22T21:38:52.262Z,99320.47
2018-09-22T21:41:21.853Z,99313.22
2018-09-22T21:43:50.533Z,99314.34
2018-09-22T21:46:19.742Z,99305.03
2018-09-22T21:48:48.189Z,99304.62
2018-09-22T21:51:17.129Z,99297.03
2018-09-22T21:53:45.594Z,99292.67
2018-09-22T21:56:15.858Z,99295.22
2018-09-22T21:58:45.260Z,99280.31
2018-09-22T22:01:19.121Z,99284.45
2018-09-22T22:03:49.843Z,99282.62
2018-09-22T22:06:18.595Z,99285.10
2018-09-22T22:08:47.733Z,99280.17
2018-09-22T22:11:17.069Z,99278.11
2018-09-22T22:13:45.856Z,99284.17
2018-09-22T22:16:14.748Z,99278.16
2018-09-22T22:18:43.770Z,99269.82
2018-09-22T22:21:12.433Z,99269.20
2018-09-22T22:23:40.961Z,99265.21
2018-09-22T22:26:10.989Z,99268.06
2018-09-22T22:28:39.438Z,99263.82
2018-09-22T22:31:08.706Z,99265.63
2018-09-22T22:33:38.280Z,99274.59
2018-09-22T22:36:06.770Z,99278.62
2018-09-22T22:38:36.044Z,99275.00
2018-09-22T22:41:05.024Z,99281.20
2018-09-22T22:43:33.443Z,99276.41
2018-09-22T22:46:02.530Z,99266.41
2018-09-22T22:48:31.915Z,99258.67
2018-09-22T22:51:00.360Z,99258.45
2018-09-22T22:53:29.620Z,99264.83
2018-09-22T22:55:58.280Z,99262.54
2018-09-22T22:58:27.076Z,99260.73
2018-09-22T23:00:56.789Z,99251.95
2018-09-22T23:03:25.605Z,99251.33
2018-09-22T23:05:54.725Z,99257.78
2018-09-22T23:08:23.508Z,99267.41
2018-09-22T23:10:52.121Z,99257.48
2018-09-22T23:13:22.057Z,99261.95
2018-09-22T23:15:50.721Z,99251.61
2018-09-22T23:18:19.145Z,99252.77
2018-09-22T23:20:47.831Z,99240.89
2018-09-22T23:23:17.059Z,99248.34
2018-09-22T23:25:46.123Z,99242.48
2018-09-22T23:28:14.548Z,99227.11
2018-09-22T23:30:43.104Z,99230.20
2018-09-22T23:33:12.213Z,99237.38
2018-09-22T23:35:41.869Z,99230.72
2018-09-22T23:38:10.324Z,99221.43
2018-09-22T23:40:39.471Z,99234.11
2018-09-22T23:43:08.239Z,99226.07
2018-09-22T23:45:37.009Z,99220.22
2018-09-22T23:48:05.920Z,99219.41
2018-09-22T23:50:34.365Z,99209.30
2018-09-22T23:53:03.701Z,99201.49
2018-09-22T23:55:32.364Z,99206.80
2018-09-22T23:58:01.017Z,99199.98
